Flight Track Log - Related Links

Times and Time Zones

All times are in EDT time to prevent confusion due to time zone crossing. See the AAL1240 flight status page for this flight to view local times or setup timezone preferences in your user account.

Time Position Orientation Groundspeed Altitude Reporting Facility
EDT Latitude Longitude Course Direction KTS MPH feet Rate Location/Type
Mon 11:42:15 AM 32.8671 -97.0268 191° South  Level FlightAware Approximate
Mon 11:42:57 AM 32.8594 -97.0286 161° South 162 186 2,000  Level FAA TRACON SMA TRACON (SMA)
Mon 11:43:37 AM 32.8272 -97.0156 156° South 202 232 2,800 1,747 Climbing FAA TRACON SMA TRACON (SMA)
Mon 11:44:16 AM 32.7861 -96.9933 115° Southeast 244 281 4,300 2,475 Climbing FAA TRACON SMA TRACON (SMA)
Mon 11:44:57 AM 32.7650 -96.9386 89° East 273 314 6,100 2,582 Climbing FAA TRACON SMA TRACON (SMA)
Mon 11:45:35 AM 32.7656 -96.8811 82° East 285 328 7,700 2,625 Climbing FAA TRACON SMA TRACON (SMA)
Mon 11:46:17 AM 32.7736 -96.8153 64° Northeast 291 335 9,600 2,195 Climbing FAA TRACON SMA TRACON (SMA)
Mon 11:46:57 AM 32.7994 -96.7517 64° Northeast 311 358 10,700 1,500 Climbing FAA TRACON SMA TRACON (SMA)
Mon 11:47:37 AM 32.8292 -96.6803 64° Northeast 352 405 11,600 1,333 Climbing FAA TRACON SMA TRACON (SMA)
Mon 11:48:18 AM 32.8578 -96.6111 64° Northeast 379 436 12,500 1,725 Climbing FAA TRACON SMA TRACON (SMA)
Mon 11:48:57 AM 32.8914 -96.5292 63° Northeast 400 460 13,900 2,430 Climbing FAA TRACON SMA TRACON (SMA)
Mon 11:49:37 AM 32.9267 -96.4453 64° Northeast 409 471 15,700 2,488 Climbing FAA TRACON SMA TRACON (SMA)
Mon 11:50:19 AM 32.9578 -96.3694 73° East 414 476 17,300 2,370 Climbing FAA TRACON SMA TRACON (SMA)
Mon 11:50:58 AM 32.9814 -96.2778 80° East 421 484 18,900 2,354 Climbing FAA TRACON SMA TRACON (SMA)
Mon 11:51:38 AM 32.9958 -96.1806 79° East 432 497 20,400 2,100 Climbing FAA TRACON SMA TRACON (SMA)
Mon 11:52:18 AM 33.0097 -96.0922 82° East 441 507 21,700 1,851 Climbing FAA TRACON SMA TRACON (SMA)
Mon 11:54:46 AM 33.0539 -95.7331 81° East 458 527 26,200 1,933 Climbing Fort Worth Center
Mon 11:55:46 AM 33.0744 -95.5689 72° East 458 527 28,400 1,600 Climbing Fort Worth Center
Mon 11:56:46 AM 33.1142 -95.4219 70° East 458 527 29,400 1,000 Climbing Fort Worth Center
Mon 11:57:46 AM 33.1617 -95.2669 70° East 472 543 30,400 1,250 Climbing Fort Worth Center
Mon 11:58:46 AM 33.2069 -95.1144 70° East 485 558 31,900 1,550 Climbing Fort Worth Center
Mon 11:59:46 AM 33.2542 -94.9617 70° East 485 558 33,500 1,550 Climbing Fort Worth Center
Mon 12:00:46 PM 33.2992 -94.8114 70° East 490 564 35,000 1,350 Climbing Fort Worth Center
Mon 12:01:46 PM 33.3439 -94.6633 70° East 490 564 36,200 1,000 Climbing Fort Worth Center
Mon 12:02:46 PM 33.3886 -94.5125 71° East 485 558 37,000 650 Climbing Fort Worth Center
Mon 12:03:46 PM 33.4308 -94.3619 70° East 480 552 37,500 550 Climbing Fort Worth Center
Mon 12:04:46 PM 33.4772 -94.2108 69° East 475 547 38,100 500 Climbing Fort Worth Center
Mon 12:05:46 PM 33.5275 -94.0569 65° Northeast 475 547 38,500 450 Climbing Fort Worth Center
Mon 12:06:46 PM 33.5861 -93.9078 67° East 480 552 39,000 250 Climbing Fort Worth Center
Mon 12:07:46 PM 33.6286 -93.7864 66° East 480 552 39,000  Level Fort Worth Center
Mon 12:08:46 PM 33.6886 -93.6267 65° Northeast 480 552 39,000  Level Fort Worth Center
Mon 12:10:05 PM 33.7658 -93.4231 65° Northeast 483 556 39,000  Level Memphis Center
Mon 12:11:05 PM 33.8236 -93.2753 65° Northeast 478 550 39,000  Level Memphis Center
Mon 12:12:05 PM 33.8792 -93.1294 65° Northeast 478 550 39,000  Level Memphis Center
Mon 12:13:05 PM 33.9364 -92.9836 67° East 478 550 39,000  Level Memphis Center
Mon 12:14:05 PM 33.9875 -92.8372 64° Northeast 478 550 39,000  Level Memphis Center
Mon 12:15:05 PM 34.0444 -92.6961 68° East 472 543 39,000  Level Memphis Center
Mon 12:16:05 PM 34.0931 -92.5519 65° Northeast 467 537 39,000  Level Memphis Center
Mon 12:17:05 PM 34.1475 -92.4078 66° East 467 537 39,000  Level Memphis Center
Mon 12:18:05 PM 34.2000 -92.2633 66° East 467 537 39,000  Level Memphis Center
Mon 12:19:05 PM 34.2522 -92.1211 66° East 467 537 39,000  Level Memphis Center
Mon 12:20:05 PM 34.3042 -91.9789 66° East 467 537 39,000  Level Memphis Center
Mon 12:21:05 PM 34.3581 -91.8339 67° East 462 532 39,000  Level Memphis Center
Mon 12:22:05 PM 34.4078 -91.6939 64° Northeast 462 532 39,000  Level Memphis Center
Mon 12:23:05 PM 34.4633 -91.5536 67° East 455 524 39,000  Level Memphis Center
Mon 12:24:05 PM 34.5128 -91.4108 65° Northeast 455 524 39,000  Level Memphis Center
Mon 12:25:05 PM 34.5681 -91.2650 68° East 455 524 39,000  Level Memphis Center
Mon 12:26:05 PM 34.6106 -91.1344 65° Northeast 455 524 39,000  Level Memphis Center
Mon 12:27:05 PM 34.6656 -90.9908 66° East 468 539 39,000  Level Memphis Center
Mon 12:28:05 PM 34.7186 -90.8422 67° East 468 539 39,000  Level Memphis Center
Mon 12:29:05 PM 34.7692 -90.6983 67° East 463 533 39,000  Level Memphis Center
Mon 12:30:05 PM 34.8194 -90.5544 66° East 458 527 39,000  Level Memphis Center
Mon 12:31:05 PM 34.8758 -90.3975 67° East 453 521 39,000  Level Memphis Center
Mon 12:32:05 PM 34.9258 -90.2508 67° East 453 521 39,000  Level Memphis Center
Mon 12:33:05 PM 34.9758 -90.1086 66° East 453 521 39,000  Level Memphis Center
Mon 12:34:05 PM 35.0275 -89.9692 66° East 460 529 39,000  Level Memphis Center
Mon 12:35:05 PM 35.0814 -89.8192 68° East 460 529 39,000  Level Memphis Center
Mon 12:36:05 PM 35.1264 -89.6842 67° East 460 529 39,000  Level Memphis Center
Mon 12:37:05 PM 35.1756 -89.5392 67° East 460 529 39,000  Level Memphis Center
Mon 12:38:05 PM 35.2267 -89.3936 66° East 460 529 39,000  Level Memphis Center
Mon 12:39:05 PM 35.2797 -89.2456 68° East 460 529 39,000  Level Memphis Center
Mon 12:40:05 PM 35.3283 -89.0997 67° East 460 529 39,000  Level Memphis Center
Mon 12:41:05 PM 35.3850 -88.9386 69° East 460 529 39,000  Level Memphis Center
Mon 12:42:05 PM 35.4314 -88.7925 66° East 460 529 39,000  Level Memphis Center
Mon 12:43:05 PM 35.4836 -88.6461 67° East 455 524 39,000  Level Memphis Center
Mon 12:44:05 PM 35.5356 -88.4972 67° East 460 529 39,000  Level Memphis Center
Mon 12:45:05 PM 35.5856 -88.3506 67° East 460 529 39,000  Level Memphis Center
Mon 12:46:05 PM 35.6353 -88.2036 66° East 460 529 39,000  Level Memphis Center
Mon 12:47:05 PM 35.6808 -88.0747 68° East 449 517 39,000  Level Memphis Center
Mon 12:48:05 PM 35.7303 -87.9250 67° East 454 522 39,000  Level Memphis Center
Mon 12:49:05 PM 35.7814 -87.7750 68° East 465 535 39,000  Level Memphis Center
Mon 12:50:05 PM 35.8303 -87.6250 68° East 465 535 39,000  Level Memphis Center
Mon 12:51:05 PM 35.8789 -87.4747 68° East 472 543 39,000  Level Memphis Center
Mon 12:52:05 PM 35.9275 -87.3244 68° East 472 543 39,000  Level Memphis Center
Mon 12:53:05 PM 35.9778 -87.1711 68° East 472 543 39,000  Level Memphis Center
Mon 12:54:05 PM 36.0300 -87.0075 69° East 472 543 39,000  Level Memphis Center
Mon 12:55:05 PM 36.0778 -86.8567 69° East 472 543 39,000  Level Memphis Center
Mon 12:56:05 PM 36.1256 -86.7056 68° East 472 543 39,000  Level Memphis Center
Mon 12:57:05 PM 36.1714 -86.5672 67° East 477 549 39,000  Level Memphis Center
Mon 12:58:05 PM 36.2211 -86.4183 68° East 472 543 39,000  Level Memphis Center
Mon 12:59:05 PM 36.2742 -86.2561 69° East 467 537 39,000  Level Memphis Center
Mon 01:00:05 PM 36.3231 -86.1017 68° East 461 531 39,000  Level Memphis Center
Mon 01:01:47 PM 36.4039 -85.8533 69° East 469 540 39,000  Level Indianapolis Center
Mon 01:02:47 PM 36.4483 -85.7075 68° East 462 532 39,000  Level Indianapolis Center
Mon 01:03:47 PM 36.4969 -85.5567 68° East 462 532 39,000  Level Indianapolis Center
Mon 01:04:47 PM 36.5453 -85.4078 69° East 462 532 39,000  Level Indianapolis Center
Mon 01:05:47 PM 36.5933 -85.2539 69° East 467 537 39,000  Level Indianapolis Center
Mon 01:06:47 PM 36.6414 -85.0997 70° East 467 537 39,000  Level Indianapolis Center
Mon 01:07:47 PM 36.6850 -84.9528 69° East 467 537 39,000  Level Indianapolis Center
Mon 01:08:47 PM 36.7306 -84.8008 69° East 467 537 39,000  Level Indianapolis Center
Mon 01:09:47 PM 36.7758 -84.6536 68° East 467 537 39,000  Level Indianapolis Center
Mon 01:10:47 PM 36.8144 -84.5350 70° East 462 532 39,000  Level Indianapolis Center
Mon 01:11:47 PM 36.8658 -84.3592 69° East 456 525 39,000  Level Indianapolis Center
Mon 01:12:47 PM 36.9106 -84.2117 70° East 456 525 39,000  Level Indianapolis Center
Mon 01:13:47 PM 36.9531 -84.0639 70° East 450 518 39,000  Level Indianapolis Center
Mon 01:14:47 PM 36.9972 -83.9133 69° East 455 524 39,000  Level Indianapolis Center
Mon 01:15:47 PM 37.0436 -83.7653 71° East 455 524 39,000  Level Indianapolis Center
Mon 01:16:47 PM 37.0856 -83.6142 69° East 450 518 39,000  Level Indianapolis Center
Mon 01:17:47 PM 37.1314 -83.4658 70° East 450 518 39,000  Level Indianapolis Center
Mon 01:18:47 PM 37.1750 -83.3147 70° East 450 518 39,000  Level Indianapolis Center
Mon 01:19:47 PM 37.2183 -83.1658 71° East 457 526 39,000  Level Indianapolis Center
Mon 01:20:47 PM 37.2614 -83.0092 69° East 457 526 39,000  Level Indianapolis Center
Mon 01:21:47 PM 37.3025 -82.8756 71° East 462 532 39,000  Level Indianapolis Center
Mon 01:22:47 PM 37.3433 -82.7236 71° East 462 532 39,000  Level Indianapolis Center
Mon 01:23:47 PM 37.3858 -82.5717 70° East 462 532 39,000  Level Indianapolis Center
Mon 01:24:47 PM 37.4283 -82.4219 71° East 462 532 39,000  Level Indianapolis Center
Mon 01:25:47 PM 37.4706 -82.2694 72° East 462 532 39,000  Level Indianapolis Center
Mon 01:26:47 PM 37.5106 -82.1169 70° East 462 532 39,000  Level Indianapolis Center
Mon 01:27:47 PM 37.5544 -81.9642 72° East 462 532 39,000  Level Indianapolis Center
Mon 01:28:47 PM 37.5939 -81.8114 71° East 457 526 39,000  Level Indianapolis Center
Mon 01:29:47 PM 37.6356 -81.6608 71° East 457 526 39,000  Level Indianapolis Center
Mon 01:30:47 PM 37.6786 -81.5050 71° East 462 532 39,000  Level Indianapolis Center
Mon 01:32:05 PM 37.7353 -81.2928 71° East 456 525 39,000  Level Washington Center
Mon 01:33:05 PM 37.7758 -81.1408 66° East 456 525 39,000  Level Washington Center
Mon 01:34:06 PM 37.8286 -80.9872 67° East 462 532 39,000  Level Washington Center
Mon 01:35:06 PM 37.8814 -80.8331 64° Northeast 467 537 39,000  Level Washington Center
Mon 01:36:05 PM 37.9331 -80.6969 66° East 467 537 39,000 -200 Level Washington Center
Mon 01:37:06 PM 37.9853 -80.5478 65° Northeast 467 537 38,600 -694 Descending Washington Center
Mon 01:38:06 PM 38.0417 -80.3958 65° Northeast 467 537 37,600 -950 Descending Washington Center
Mon 01:39:06 PM 38.0978 -80.2411 66° East 472 543 36,700 -793 Descending Washington Center
Mon 01:40:07 PM 38.1517 -80.0861 66° East 472 543 36,000 -843 Descending Washington Center
Mon 01:41:07 PM 38.2122 -79.9153 66° East 478 550 35,000 -1,350 Descending Washington Center
Mon 01:42:07 PM 38.2678 -79.7572 65° Northeast 478 550 33,300 -2,034 Descending Washington Center
Mon 01:43:05 PM 38.3256 -79.5961 67° East 483 556 31,000 -2,288 Descending Washington Center
Mon 01:44:05 PM 38.3786 -79.4350 66° East 493 567 28,800 -2,231 Descending Washington Center
Mon 01:45:06 PM 38.4339 -79.2733 70° East 493 567 26,500 -2,132 Descending Washington Center
Mon 01:46:06 PM 38.4756 -79.1294 71° East 487 560 24,500 -1,983 Descending Washington Center
Mon 01:47:07 PM 38.5200 -78.9672 72° East 482 555 22,500 -1,934 Descending Washington Center
Mon 01:48:07 PM 38.5597 -78.8097 70° East 482 555 20,600 -1,916 Descending Washington Center
Mon 01:49:06 PM 38.6011 -78.6600 69° East 462 532 18,700 -1,750 Descending Washington Center
Mon 01:50:07 PM 38.6444 -78.5156 67° East 450 518 17,100 -1,736 Descending Washington Center
Mon 01:51:07 PM 38.6894 -78.3764 64° Northeast 428 493 15,200 -1,271 Descending Washington Center
Mon 01:52:05 PM 38.7403 -78.2453 65° Northeast 416 479 14,600 -958 Descending Washington Center
Mon 01:53:06 PM 38.7889 -78.1139 64° Northeast 406 467 13,300 -793 Descending Washington Center
Mon 01:54:06 PM 38.8375 -77.9875 64° Northeast 395 455 13,000 -198 Descending Washington Center
Mon 01:55:07 PM 38.8903 -77.8453 66° East 395 455 12,900 -1,240 Descending Washington Center
Mon 01:56:07 PM 38.9342 -77.7211 90° East 395 455 10,500 -1,339 Descending Washington Center
Mon 01:57:08 PM 38.9342 -77.5931 90° East 358 412 10,200 -1,008 Descending Washington Center
Mon 01:58:06 PM 38.9339 -77.4836 113° Southeast 321 369 8,500 -1,412 Descending Washington Center
Mon 01:59:07 PM 38.9022 -77.3869 91° East 289 333 7,400 -634 Descending Washington Center
Mon 02:00:28 PM 38.9000 -77.2667 360° North 234 269 7,000 -571 Descending Potomac TRACON
Mon 02:01:34 PM 38.9333 -77.2667 333° Northwest 172 198 6,000 -472 Descending Potomac TRACON
Mon 02:02:35 PM 38.9833 -77.3000 38° Northeast 172 198 6,000 -397 Level Potomac TRACON
Mon 02:03:35 PM 39.0167 -77.2667 49° Northeast 199 229 5,200 -1,140 Descending Potomac TRACON
Mon 02:04:36 PM 39.0500 -77.2167 159° South 222 255 3,700 -1,091 Descending Potomac TRACON
Mon 02:05:36 PM 39.0167 -77.2000 142° Southeast 156 180 3,000 -347 Descending Potomac TRACON
Mon 02:06:37 PM 38.9833 -77.1667 142° Southeast 159 183 3,000 -397 Level Potomac TRACON
Mon 02:07:37 PM 38.9500 -77.1333 131° Southeast 159 183 2,200 -810 Descending Potomac TRACON
Mon 02:08:43 PM 38.9167 -77.0833 142° Southeast 151 174 1,300 -803 Descending Potomac TRACON
Mon 02:09:44 PM 38.8833 -77.0500 142° Southeast 144 166 500 -787 Descending Potomac TRACON

Login

Don't have an account? Register now (free) for customized features, flight alerts, and more!